createdAt,value
2018-04-11T00:01:21.775Z,70.90
2018-04-11T00:03:50.050Z,70.27
2018-04-11T00:06:18.320Z,70.26
2018-04-11T00:08:46.602Z,69.51
2018-04-11T00:11:14.868Z,69.70
2018-04-11T00:13:43.130Z,70.41
2018-04-11T00:16:11.409Z,69.83
2018-04-11T00:18:39.684Z,70.86
2018-04-11T00:21:07.966Z,70.66
2018-04-11T00:23:36.231Z,69.91
2018-04-11T00:26:04.498Z,71.59
2018-04-11T00:28:32.786Z,72.16
2018-04-11T00:31:01.057Z,72.57
2018-04-11T00:33:29.319Z,72.60
2018-04-11T00:35:57.587Z,72.28
2018-04-11T00:38:25.846Z,72.61
2018-04-11T00:40:54.120Z,72.08
2018-04-11T00:43:22.386Z,71.92
2018-04-11T00:45:50.658Z,72.98
2018-04-11T00:48:18.927Z,72.92
2018-04-11T00:50:47.195Z,73.57
2018-04-11T00:53:27.090Z,74.39
2018-04-11T00:55:55.354Z,74.52
2018-04-11T00:58:23.615Z,74.72
2018-04-11T01:00:51.889Z,74.00
2018-04-11T01:03:20.151Z,74.59
2018-04-11T01:05:48.694Z,74.31
2018-04-11T01:08:16.970Z,75.19
2018-04-11T01:10:45.249Z,75.34
2018-04-11T01:13:13.520Z,74.55
2018-04-11T01:15:41.790Z,73.79
2018-04-11T01:18:10.086Z,74.01
2018-04-11T01:20:38.354Z,73.49
2018-04-11T01:23:06.623Z,72.93
2018-04-11T01:25:34.899Z,73.88
2018-04-11T01:28:03.168Z,73.71
2018-04-11T01:30:31.442Z,73.95
2018-04-11T01:32:59.714Z,72.82
2018-04-11T01:35:27.985Z,73.55
2018-04-11T01:37:56.259Z,73.11
2018-04-11T01:40:24.527Z,72.88
2018-04-11T01:42:52.806Z,73.63
2018-04-11T01:45:21.078Z,72.92
2018-04-11T01:47:49.347Z,72.00
2018-04-11T01:50:17.887Z,71.43
2018-04-11T01:52:46.154Z,72.42
2018-04-11T01:55:14.430Z,72.59
2018-04-11T01:57:42.722Z,73.00
2018-04-11T02:00:10.989Z,72.35
2018-04-11T02:02:39.249Z,72.25
2018-04-11T02:05:07.530Z,71.49
2018-04-11T02:07:41.560Z,71.62
2018-04-11T02:10:09.839Z,71.81
2018-04-11T02:12:38.107Z,71.70
2018-04-11T02:15:06.370Z,72.66
2018-04-11T02:17:34.648Z,71.47
2018-04-11T02:20:02.957Z,72.31
2018-04-11T02:22:31.207Z,71.87
2018-04-11T02:24:59.468Z,71.13
2018-04-11T02:27:27.731Z,71.76
2018-04-11T02:29:56.009Z,71.12
2018-04-11T02:32:24.285Z,71.57
2018-04-11T02:34:52.576Z,71.32
2018-04-11T02:37:20.836Z,71.05
2018-04-11T02:39:49.106Z,70.02
2018-04-11T02:42:17.388Z,69.85
2018-04-11T02:44:45.677Z,71.25
2018-04-11T02:47:13.954Z,70.90
2018-04-11T02:49:42.239Z,71.08
2018-04-11T02:52:10.508Z,70.67
2018-04-11T02:54:38.782Z,70.48
2018-04-11T02:57:07.060Z,70.31
2018-04-11T02:59:35.338Z,70.70
2018-04-11T03:02:03.606Z,71.59
2018-04-11T03:04:31.879Z,70.91
2018-04-11T03:07:00.145Z,70.32
2018-04-11T03:09:28.420Z,70.16
2018-04-11T03:11:56.694Z,71.28
2018-04-11T03:14:24.964Z,70.73
2018-04-11T03:16:53.230Z,71.33
2018-04-11T03:19:21.506Z,70.73
2018-04-11T03:21:49.818Z,72.03
2018-04-11T03:24:18.059Z,71.78
2018-04-11T03:26:46.331Z,71.47
2018-04-11T03:29:14.598Z,71.22
2018-04-11T03:31:42.878Z,71.60
2018-04-11T03:34:11.150Z,70.66
2018-04-11T03:36:39.434Z,70.04
2018-04-11T03:39:07.706Z,69.45
2018-04-11T03:41:35.973Z,70.67
2018-04-11T03:44:04.260Z,70.95
2018-04-11T03:46:32.530Z,70.90
2018-04-11T03:49:00.813Z,71.32
2018-04-11T03:51:29.081Z,70.44
2018-04-11T03:53:57.346Z,69.86
2018-04-11T03:56:25.626Z,70.48
2018-04-11T03:58:53.898Z,71.05
2018-04-11T04:01:22.187Z,71.23
2018-04-11T04:03:50.458Z,70.13
2018-04-11T04:06:18.731Z,71.22
2018-04-11T04:08:47.042Z,72.54
2018-04-11T04:11:15.317Z,73.41
2018-04-11T04:13:55.386Z,72.81
2018-04-11T04:16:35.244Z,72.43
2018-04-11T04:19:15.149Z,73.22
2018-04-11T04:21:43.414Z,72.27
2018-04-11T04:24:11.678Z,72.18
2018-04-11T04:26:39.953Z,72.33
2018-04-11T04:29:08.222Z,71.75
2018-04-11T04:31:36.510Z,71.57
2018-04-11T04:34:04.774Z,71.78
2018-04-11T04:36:33.057Z,71.54
2018-04-11T04:39:01.343Z,71.48
2018-04-11T04:41:29.617Z,73.00
2018-04-11T04:43:57.900Z,72.07
2018-04-11T04:46:26.177Z,71.48
2018-04-11T04:48:54.443Z,72.42
2018-04-11T04:51:22.739Z,72.65
2018-04-11T04:53:51.014Z,72.69
2018-04-11T04:56:19.327Z,72.35
2018-04-11T04:58:47.613Z,72.08
2018-04-11T05:01:15.896Z,71.99
2018-04-11T05:03:44.201Z,71.78
2018-04-11T05:06:12.469Z,71.69
2018-04-11T05:08:40.763Z,71.85
2018-04-11T05:11:09.033Z,73.01
2018-04-11T05:13:37.318Z,73.95
2018-04-11T05:16:05.614Z,73.97
2018-04-11T05:18:33.890Z,74.32
2018-04-11T05:21:02.191Z,73.53
2018-04-11T05:23:30.478Z,73.72
2018-04-11T05:25:58.739Z,73.31
2018-04-11T05:28:27.119Z,73.89
2018-04-11T05:30:55.394Z,73.65
2018-04-11T05:33:23.673Z,73.49
2018-04-11T05:35:51.946Z,72.95
2018-04-11T05:38:20.234Z,73.56
2018-04-11T05:40:49.006Z,73.32
2018-04-11T05:43:17.270Z,73.32
2018-04-11T05:45:45.565Z,73.40
2018-04-11T05:48:13.843Z,73.65
2018-04-11T05:50:42.133Z,75.61
2018-04-11T05:53:10.407Z,76.48
2018-04-11T05:55:38.699Z,74.87
2018-04-11T05:58:06.970Z,74.86
2018-04-11T06:00:35.246Z,74.66
2018-04-11T06:03:03.542Z,74.71
2018-04-11T06:05:31.832Z,75.16
2018-04-11T06:08:00.122Z,74.78
2018-04-11T06:10:28.406Z,74.07
2018-04-11T06:12:56.696Z,74.34
2018-04-11T06:15:24.971Z,74.71
2018-04-11T06:17:53.246Z,74.84
2018-04-11T06:20:21.539Z,74.68
2018-04-11T06:22:49.830Z,75.45
2018-04-11T06:25:18.139Z,76.24
2018-04-11T06:27:46.418Z,76.08
2018-04-11T06:30:14.725Z,76.31
2018-04-11T06:32:43.007Z,75.90
2018-04-11T06:35:11.297Z,75.96
2018-04-11T06:37:39.583Z,76.51
2018-04-11T06:40:07.866Z,76.08
2018-04-11T06:42:36.158Z,76.11
2018-04-11T06:45:04.444Z,75.68
2018-04-11T06:47:32.757Z,75.83
2018-04-11T06:50:01.047Z,75.37
2018-04-11T06:52:29.338Z,75.97
2018-04-11T06:54:57.631Z,75.46
2018-04-11T06:57:25.914Z,75.37
2018-04-11T06:59:54.207Z,75.59
2018-04-11T07:02:22.493Z,76.13
2018-04-11T07:04:50.817Z,76.18
2018-04-11T07:07:19.096Z,75.52
2018-04-11T07:09:47.382Z,75.17
2018-04-11T07:12:15.685Z,75.19
2018-04-11T07:14:43.978Z,76.04
2018-04-11T07:17:12.264Z,76.54
2018-04-11T07:19:40.551Z,76.25
2018-04-11T07:22:08.858Z,76.34
2018-04-11T07:24:37.142Z,75.60
2018-04-11T07:27:05.422Z,75.78
2018-04-11T07:29:33.711Z,75.21
2018-04-11T07:32:02.002Z,76.08
2018-04-11T07:34:30.298Z,75.33
2018-04-11T07:36:58.582Z,76.06
2018-04-11T07:39:27.122Z,75.61
2018-04-11T07:41:55.403Z,76.13
2018-04-11T07:44:23.679Z,75.62
2018-04-11T07:46:51.970Z,74.85
2018-04-11T07:49:20.258Z,75.72
2018-04-11T07:51:49.270Z,76.08
2018-04-11T07:54:17.559Z,76.89
2018-04-11T07:56:45.878Z,76.30
2018-04-11T07:59:14.170Z,75.91
2018-04-11T08:01:42.458Z,75.42
2018-04-11T08:04:10.755Z,75.43
2018-04-11T08:06:39.040Z,74.95
2018-04-11T08:09:07.327Z,74.91
2018-04-11T08:11:35.610Z,75.22
2018-04-11T08:14:04.146Z,75.39
2018-04-11T08:16:32.471Z,76.11
2018-04-11T08:19:00.748Z,75.17
2018-04-11T08:21:29.054Z,75.03
2018-04-11T08:23:56.769Z,75.11
2018-04-11T08:26:25.070Z,74.53
2018-04-11T08:28:53.352Z,74.09
2018-04-11T08:31:21.645Z,74.17
2018-04-11T08:33:49.934Z,74.03
2018-04-11T08:36:18.217Z,73.74
2018-04-11T08:38:45.953Z,73.48
2018-04-11T08:41:14.266Z,72.92
2018-04-11T08:43:42.552Z,73.02
2018-04-11T08:46:10.834Z,72.99
2018-04-11T08:48:39.146Z,73.52
2018-04-11T08:51:07.428Z,73.37
2018-04-11T08:53:35.714Z,73.19
2018-04-11T08:56:04.006Z,73.73
2018-04-11T08:58:32.637Z,71.84
2018-04-11T09:01:00.902Z,73.33
2018-04-11T09:03:29.178Z,72.22
2018-04-11T09:05:57.482Z,72.59
2018-04-11T09:08:25.769Z,72.53
2018-04-11T09:10:54.049Z,72.37
2018-04-11T09:13:22.338Z,72.58
2018-04-11T09:15:50.605Z,72.37
2018-04-11T09:18:18.944Z,71.65
2018-04-11T09:20:47.210Z,72.46
2018-04-11T09:23:15.498Z,72.53
2018-04-11T09:25:43.779Z,72.24
2018-04-11T09:28:12.049Z,72.99
2018-04-11T09:30:40.334Z,72.34
2018-04-11T09:33:08.654Z,71.51
2018-04-11T09:35:36.883Z,72.47
2018-04-11T09:38:05.159Z,71.64
2018-04-11T09:40:33.691Z,70.54
2018-04-11T09:43:01.978Z,70.51
2018-04-11T09:45:30.247Z,71.19
2018-04-11T09:47:58.535Z,71.24
2018-04-11T09:50:26.810Z,71.29
2018-04-11T09:52:55.102Z,71.43
2018-04-11T09:55:23.394Z,71.81
2018-04-11T09:57:51.677Z,70.97
2018-04-11T10:00:19.968Z,72.37
2018-04-11T10:02:54.178Z,72.88
2018-04-11T10:05:22.813Z,72.38
2018-04-11T10:07:51.166Z,72.62
2018-04-11T10:10:19.470Z,72.67
2018-04-11T10:12:48.613Z,72.69
2018-04-11T10:15:16.894Z,72.91
2018-04-11T10:17:45.178Z,72.19
2018-04-11T10:20:13.460Z,73.66
2018-04-11T10:22:41.746Z,73.08
2018-04-11T10:25:10.035Z,73.24
2018-04-11T10:27:38.346Z,73.39
2018-04-11T10:30:06.644Z,72.40
2018-04-11T10:32:34.950Z,72.10
2018-04-11T10:35:03.202Z,72.77
2018-04-11T10:37:31.478Z,72.92
2018-04-11T10:39:59.763Z,72.77
2018-04-11T10:42:28.038Z,71.95
2018-04-11T10:44:56.325Z,71.95
2018-04-11T10:47:24.624Z,72.14
2018-04-11T10:49:53.047Z,70.92
2018-04-11T10:52:21.314Z,69.69
2018-04-11T10:54:49.589Z,70.44
2018-04-11T10:57:17.866Z,69.94
2018-04-11T10:59:46.135Z,71.03
2018-04-11T11:02:14.427Z,71.97
2018-04-11T11:04:42.699Z,71.26
2018-04-11T11:07:11.244Z,69.92
2018-04-11T11:09:39.531Z,70.19
2018-04-11T11:12:08.806Z,69.05
2018-04-11T11:14:37.102Z,70.02
2018-04-11T11:17:05.374Z,69.57
2018-04-11T11:19:33.666Z,70.21
2018-04-11T11:22:01.946Z,69.04
2018-04-11T11:24:30.241Z,68.65
2018-04-11T11:26:58.516Z,70.28
2018-04-11T11:29:26.783Z,69.41
2018-04-11T11:31:55.074Z,69.17
2018-04-11T11:34:23.353Z,67.92
2018-04-11T11:36:51.621Z,66.40
2018-04-11T11:39:19.935Z,68.16
2018-04-11T11:41:48.230Z,66.92
2018-04-11T11:44:16.498Z,69.27
2018-04-11T11:46:44.766Z,67.53
2018-04-11T11:49:13.053Z,69.25
2018-04-11T11:51:41.329Z,69.54
2018-04-11T11:54:09.624Z,68.98
2018-04-11T11:59:34.694Z,70.34
2018-04-11T12:02:02.966Z,69.23
2018-04-11T12:04:31.257Z,70.02
2018-04-11T12:06:59.530Z,68.35
2018-04-11T12:09:27.803Z,68.11
2018-04-11T12:11:56.166Z,69.27
2018-04-11T12:14:24.387Z,68.45
2018-04-11T12:16:52.690Z,68.75
2018-04-11T12:19:20.960Z,67.52
2018-04-11T12:21:49.239Z,68.85
2018-04-11T12:24:17.522Z,66.11
2018-04-11T12:26:45.793Z,66.91
2018-04-11T12:29:14.083Z,65.49
2018-04-11T12:31:42.354Z,65.45
2018-04-11T12:34:10.626Z,65.33
2018-04-11T12:36:38.937Z,64.38
2018-04-11T12:39:07.248Z,64.70
2018-04-11T12:41:35.547Z,66.52
2018-04-11T12:44:03.821Z,66.60
2018-04-11T12:46:32.104Z,67.19
2018-04-11T12:49:00.378Z,64.86
2018-04-11T12:51:28.650Z,64.25
2018-04-11T12:53:56.954Z,62.96
2018-04-11T12:56:25.244Z,62.89
2018-04-11T12:58:53.551Z,62.27
2018-04-11T13:01:21.847Z,63.24
2018-04-11T13:03:50.122Z,62.72
2018-04-11T13:06:18.409Z,62.16
2018-04-11T13:08:46.687Z,61.17
2018-04-11T13:11:14.966Z,62.68
2018-04-11T13:13:43.250Z,62.08
2018-04-11T13:16:11.531Z,65.56
2018-04-11T13:18:39.814Z,62.50
2018-04-11T13:21:08.082Z,63.15
2018-04-11T13:23:36.354Z,62.62
2018-04-11T13:26:04.645Z,61.72
2018-04-11T13:28:32.911Z,61.59
2018-04-11T13:31:01.202Z,61.12
2018-04-11T13:33:29.473Z,63.31
2018-04-11T13:35:57.755Z,62.71
2018-04-11T13:38:26.031Z,61.61
2018-04-11T13:40:54.294Z,61.74
2018-04-11T13:43:22.577Z,60.64
2018-04-11T13:45:50.860Z,59.62
2018-04-11T13:48:19.107Z,60.02
2018-04-11T13:50:47.379Z,60.67
2018-04-11T13:53:15.642Z,59.89
2018-04-11T13:55:43.930Z,59.58
2018-04-11T13:58:12.200Z,60.21
2018-04-11T14:00:40.464Z,58.54
2018-04-11T14:03:08.754Z,59.00
2018-04-11T14:05:37.035Z,57.78
2018-04-11T14:08:05.346Z,56.64
2018-04-11T14:10:33.606Z,56.42
2018-04-11T14:13:01.878Z,55.99
2018-04-11T14:15:30.161Z,57.11
2018-04-11T14:17:58.422Z,57.87
2018-04-11T14:20:26.718Z,56.95
2018-04-11T14:22:54.994Z,57.08
2018-04-11T14:25:23.275Z,57.42
2018-04-11T14:27:51.550Z,57.36
2018-04-11T14:30:19.823Z,57.23
2018-04-11T14:32:48.122Z,57.35
2018-04-11T14:35:16.386Z,57.49
2018-04-11T14:37:44.667Z,58.53
2018-04-11T14:40:12.955Z,57.83
2018-04-11T14:42:41.234Z,57.20
2018-04-11T14:45:09.559Z,57.59
2018-04-11T14:47:37.859Z,58.43
2018-04-11T14:50:06.110Z,58.37
2018-04-11T14:52:34.385Z,58.53
2018-04-11T14:55:02.659Z,58.77
2018-04-11T14:57:30.938Z,59.24
2018-04-11T14:59:59.206Z,59.10
2018-04-11T15:02:27.482Z,59.37
2018-04-11T15:04:55.754Z,57.59
2018-04-11T15:07:24.031Z,58.82
2018-04-11T15:09:52.310Z,55.98
2018-04-11T15:12:20.582Z,57.01
2018-04-11T15:14:48.851Z,57.27
2018-04-11T15:17:17.130Z,56.94
2018-04-11T15:19:45.399Z,56.50
2018-04-11T15:22:13.695Z,56.62
2018-04-11T15:24:41.963Z,55.21
2018-04-11T15:27:10.230Z,56.23
2018-04-11T15:29:38.518Z,57.58
2018-04-11T15:32:06.794Z,55.85
2018-04-11T15:34:35.070Z,56.05
2018-04-11T15:37:03.338Z,57.40
2018-04-11T15:39:31.602Z,57.08
2018-04-11T15:41:59.897Z,56.52
2018-04-11T15:44:28.875Z,57.40
2018-04-11T15:46:57.164Z,56.68
2018-04-11T15:49:25.470Z,56.51
2018-04-11T15:51:53.686Z,56.73
2018-04-11T15:54:21.962Z,57.55
2018-04-11T15:56:50.223Z,57.11
2018-04-11T15:59:18.510Z,56.58
2018-04-11T16:01:46.780Z,56.10
2018-04-11T16:04:15.047Z,56.88
2018-04-11T16:06:43.323Z,56.49
2018-04-11T16:09:11.586Z,55.74
2018-04-11T16:11:39.863Z,56.84
2018-04-11T16:14:08.131Z,56.79
2018-04-11T16:16:36.396Z,56.22
2018-04-11T16:19:04.674Z,56.48
2018-04-11T16:21:32.940Z,56.10
2018-04-11T16:24:01.217Z,57.44
2018-04-11T16:26:29.486Z,56.84
2018-04-11T16:28:57.754Z,56.03
2018-04-11T16:31:26.038Z,56.79
2018-04-11T16:33:54.318Z,56.23
2018-04-11T16:36:22.603Z,56.19
2018-04-11T16:38:50.875Z,56.66
2018-04-11T16:41:19.178Z,57.86
2018-04-11T16:43:47.439Z,58.53
2018-04-11T16:46:15.725Z,57.91
2018-04-11T16:48:44.006Z,57.87
2018-04-11T16:51:12.271Z,57.61
2018-04-11T16:53:40.549Z,57.60
2018-04-11T16:56:08.836Z,58.51
2018-04-11T16:58:37.114Z,59.50
2018-04-11T17:01:05.405Z,58.71
2018-04-11T17:03:33.706Z,58.70
2018-04-11T17:06:01.965Z,59.26
2018-04-11T17:08:30.253Z,58.72
2018-04-11T17:10:58.518Z,58.93
2018-04-11T17:13:26.806Z,59.17
2018-04-11T17:15:55.074Z,58.52
2018-04-11T17:18:23.347Z,58.76
2018-04-11T17:21:03.423Z,58.55
2018-04-11T17:23:43.355Z,59.16
2018-04-11T17:26:23.245Z,59.63
2018-04-11T17:29:03.050Z,60.08
2018-04-11T17:31:32.122Z,60.15
2018-04-11T17:34:00.392Z,59.69
2018-04-11T17:36:28.683Z,59.88
2018-04-11T17:38:56.969Z,60.09
2018-04-11T17:41:25.209Z,59.17
2018-04-11T17:43:53.482Z,59.37
2018-04-11T17:46:21.748Z,59.84
2018-04-11T17:48:50.031Z,59.71
2018-04-11T17:51:18.333Z,60.48
2018-04-11T17:53:46.562Z,60.34
2018-04-11T17:56:15.090Z,59.91
2018-04-11T17:58:44.218Z,61.08
2018-04-11T18:01:12.638Z,60.88
2018-04-11T18:03:40.915Z,61.07
2018-04-11T18:06:09.174Z,61.30
2018-04-11T18:08:37.445Z,60.94
2018-04-11T18:11:05.748Z,61.43
2018-04-11T18:13:34.010Z,61.80
2018-04-11T18:16:02.347Z,61.93
2018-04-11T18:18:30.861Z,61.84
2018-04-11T18:20:59.130Z,62.07
2018-04-11T18:23:27.390Z,62.83
2018-04-11T18:25:55.774Z,63.28
2018-04-11T18:28:24.045Z,63.53
2018-04-11T18:30:52.331Z,64.04
2018-04-11T18:33:20.595Z,64.18
2018-04-11T18:35:48.879Z,64.07
2018-04-11T18:38:17.165Z,64.21
2018-04-11T18:40:45.435Z,64.28
2018-04-11T18:43:13.715Z,64.45
2018-04-11T18:45:41.983Z,64.17
2018-04-11T18:48:10.267Z,64.08
2018-04-11T18:50:38.534Z,64.05
2018-04-11T18:53:06.801Z,64.73
2018-04-11T18:55:35.080Z,64.95
2018-04-11T18:58:03.350Z,65.09
2018-04-11T19:00:31.648Z,65.27
2018-04-11T19:03:00.055Z,64.77
2018-04-11T19:05:28.215Z,64.96
2018-04-11T19:07:56.499Z,65.13
2018-04-11T19:10:24.759Z,65.21
2018-04-11T19:12:53.059Z,65.41
2018-04-11T19:15:21.318Z,66.00
2018-04-11T19:17:49.611Z,66.56
2018-04-11T19:20:17.873Z,66.67
2018-04-11T19:22:46.146Z,66.76
2018-04-11T19:25:14.486Z,67.17
2018-04-11T19:27:42.710Z,67.04
2018-04-11T19:30:10.984Z,67.94
2018-04-11T19:32:39.270Z,68.20
2018-04-11T19:35:07.542Z,67.69
2018-04-11T19:37:35.823Z,67.04
2018-04-11T19:40:04.091Z,67.94
2018-04-11T19:42:32.357Z,68.24
2018-04-11T19:45:00.654Z,67.45
2018-04-11T19:47:28.942Z,67.40
2018-04-11T19:49:57.245Z,68.18
2018-04-11T19:52:25.491Z,67.51
2018-04-11T19:54:53.754Z,67.95
2018-04-11T19:57:22.035Z,67.70
2018-04-11T19:59:50.310Z,67.38
2018-04-11T20:02:18.593Z,67.31
2018-04-11T20:04:46.858Z,67.54
2018-04-11T20:07:15.139Z,67.46
2018-04-11T20:09:43.415Z,67.46
2018-04-11T20:12:11.686Z,67.62
2018-04-11T20:14:39.980Z,67.07
2018-04-11T20:17:08.250Z,67.73
2018-04-11T20:19:36.523Z,67.29
2018-04-11T20:22:04.796Z,67.66
2018-04-11T20:24:33.065Z,67.49
2018-04-11T20:27:01.348Z,67.37
2018-04-11T20:29:29.615Z,67.20
2018-04-11T20:31:57.883Z,67.77
2018-04-11T20:34:26.166Z,67.78
2018-04-11T20:36:54.435Z,68.58
2018-04-11T20:39:22.718Z,68.08
2018-04-11T20:41:50.981Z,68.01
2018-04-11T20:44:19.250Z,68.04
2018-04-11T20:46:47.526Z,68.23
2018-04-11T20:49:15.813Z,68.72
2018-04-11T20:51:44.095Z,68.24
2018-04-11T20:54:12.703Z,67.87
2018-04-11T20:56:40.963Z,68.35
2018-04-11T20:59:09.235Z,68.30
2018-04-11T21:01:37.502Z,68.45
2018-04-11T21:04:05.807Z,68.13
2018-04-11T21:06:34.142Z,69.13
2018-04-11T21:09:02.442Z,68.90
2018-04-11T21:11:30.714Z,69.27
2018-04-11T21:13:58.982Z,69.29
2018-04-11T21:16:27.270Z,68.68
2018-04-11T21:18:55.539Z,68.79
2018-04-11T21:21:23.811Z,69.23
2018-04-11T21:23:52.094Z,68.54
2018-04-11T21:26:20.374Z,69.47
2018-04-11T21:28:48.662Z,68.87
2018-04-11T21:31:16.930Z,68.68
2018-04-11T21:33:45.203Z,68.69
2018-04-11T21:36:13.492Z,68.73
2018-04-11T21:41:39.062Z,68.77
2018-04-11T21:44:07.317Z,68.38
2018-04-11T21:46:35.591Z,68.28
2018-04-11T21:49:03.857Z,68.94
2018-04-11T21:51:32.122Z,68.55
2018-04-11T21:54:00.407Z,68.67
2018-04-11T21:56:28.685Z,68.77
2018-04-11T21:58:56.954Z,68.23
2018-04-11T22:01:25.226Z,68.09
2018-04-11T22:03:53.502Z,68.66
2018-04-11T22:06:21.782Z,68.53
2018-04-11T22:08:50.055Z,68.35
2018-04-11T22:11:18.322Z,68.14
2018-04-11T22:13:46.597Z,68.41
2018-04-11T22:16:14.869Z,68.87
2018-04-11T22:18:43.166Z,68.92
2018-04-11T22:21:11.410Z,69.51
2018-04-11T22:23:39.681Z,69.35
2018-04-11T22:26:07.966Z,69.10
2018-04-11T22:28:36.225Z,69.06
2018-04-11T22:31:04.514Z,69.21
2018-04-11T22:33:32.782Z,69.09
2018-04-11T22:36:01.050Z,68.36
2018-04-11T22:38:29.326Z,69.45
2018-04-11T22:40:57.609Z,69.18
2018-04-11T22:43:25.908Z,69.11
2018-04-11T22:45:54.174Z,69.03
2018-04-11T22:48:22.439Z,69.03
2018-04-11T22:50:50.714Z,68.56
2018-04-11T22:53:18.978Z,69.52
2018-04-11T22:55:47.574Z,69.12
2018-04-11T22:58:15.856Z,69.02
2018-04-11T23:00:44.113Z,69.06
2018-04-11T23:03:12.387Z,69.31
2018-04-11T23:05:40.656Z,68.61
2018-04-11T23:08:08.970Z,69.25
2018-04-11T23:10:37.233Z,69.39
2018-04-11T23:13:05.496Z,69.21
2018-04-11T23:15:33.772Z,70.39
2018-04-11T23:18:02.962Z,69.26
2018-04-11T23:20:31.256Z,70.05
2018-04-11T23:22:59.531Z,69.31
2018-04-11T23:25:27.800Z,68.76
2018-04-11T23:27:56.073Z,69.45
2018-04-11T23:30:24.337Z,69.13
2018-04-11T23:32:52.615Z,68.88
2018-04-11T23:35:20.887Z,69.15
2018-04-11T23:37:49.152Z,68.70
2018-04-11T23:40:17.426Z,69.20
2018-04-11T23:42:45.684Z,69.44
2018-04-11T23:45:13.947Z,68.91
2018-04-11T23:47:42.240Z,68.90
2018-04-11T23:50:10.526Z,69.10
2018-04-11T23:52:38.789Z,68.89
2018-04-11T23:55:07.066Z,69.59
2018-04-11T23:57:35.342Z,69.06
